| time (UTC) | temp F | wind direction | speed MPH | gust MPH | rain 1hr in | rain 24hr in | rain mn in | humidity % | barometer mb |
| 20260510030007 | 44 | 219 | 0.0 | 6.0 | 0.00 | 0.00 | 0.00 | 79 | 1039.9 |
| 20260510024502 | 44 | 215 | 0.0 | 8.0 | 0.00 | 0.00 | 0.00 | 80 | 1038.9 |
| 20260510023058 | 45 | 105 | 0.0 | 7.0 | 0.00 | 0.00 | 0.00 | 79 | 1038.1 |
| 20260510021555 | 45 | 130 | 1.0 | 9.0 | 0.00 | 0.00 | 0.00 | 78 | 1037.7 |
| 20260510020052 | 46 | 212 | 4.0 | 10.0 | 0.00 | 0.00 | 0.00 | 74 | 1036.7 |
| 20260510014550 | 48 | 204 | 6.0 | 12.0 | 0.00 | 0.00 | 0.00 | 68 | 1035.9 |
| 20260510013047 | 52 | 175 | 2.0 | 12.0 | 0.00 | 0.00 | 0.00 | 60 | 1035.0 |
| 20260510011546 | 60 | 199 | 5.0 | 8.0 | 0.00 | 0.00 | 0.00 | 38 | 1033.8 |
| 20260510010045 | 61 | 194 | 0.0 | 0.0 | 0.00 | 0.00 | 0.00 | 31 | 1033.2 |
| 20260510004544 | 62 | 194 | 0.0 | 0.0 | 0.00 | 0.00 | 0.00 | 31 | 1033.0 |
| 20260510003050 | 62 | 194 | 0.0 | 1.0 | 0.00 | 0.00 | 0.00 | 29 | 1032.6 |
| 20260510001543 | 63 | 194 | 0.0 | 0.0 | 0.00 | 0.00 | 0.00 | 30 | 1032.6 |
| 20260510000049 | 62 | 194 | 0.0 | 0.0 | 0.00 | 0.00 | 0.00 | 31 | 1032.4 |
| 20260509234553 | 62 | 194 | 0.0 | 0.0 | 0.00 | 0.00 | 0.00 | 30 | 1032.2 |
| 20260509233043 | 63 | 194 | 0.0 | 0.0 | 0.00 | 0.00 | 0.00 | 31 | 1032.2 |
| 20260509231540 | 63 | 194 | 0.0 | 0.0 | 0.00 | 0.00 | 0.00 | 31 | 1032.0 |
| 20260509230040 | 63 | 194 | 0.0 | 0.0 | 0.00 | 0.00 | 0.00 | 29 | 1032.4 |
| 20260509224537 | 62 | 194 | 0.0 | 0.0 | 0.00 | 0.00 | 0.00 | 30 | 1032.4 |
| 20260509223044 | 62 | 194 | 0.0 | 0.0 | 0.00 | 0.00 | 0.00 | 31 | 1032.4 |
| 20260509221537 | 62 | 194 | 0.0 | 0.0 | 0.00 | 0.00 | 0.00 | 32 | 1032.3 |
| 20260509220035 | 62 | 194 | 0.0 | 1.0 | 0.00 | 0.00 | 0.00 | 31 | 1032.3 |
| 20260509214533 | 62 | 194 | 0.0 | 1.0 | 0.00 | 0.00 | 0.00 | 29 | 1032.5 |
| 20260509213033 | 63 | 193 | 0.0 | 0.0 | 0.00 | 0.00 | 0.00 | 27 | 1032.5 |
| 20260509211532 | 63 | 179 | 0.0 | 3.0 | 0.00 | 0.00 | 0.00 | 28 | 1032.6 |
| 20260509210035 | 64 | 138 | 0.0 | 5.0 | 0.00 | 0.00 | 0.00 | 28 | 1032.5 |
| 20260509204531 | 66 | 187 | 1.0 | 4.0 | 0.00 | 0.00 | 0.00 | 27 | 1032.3 |
| 20260509203029 | 65 | 171 | 0.0 | 7.0 | 0.00 | 0.00 | 0.00 | 27 | 1032.4 |
| 20260509201527 | 65 | 211 | 0.0 | 0.0 | 0.00 | 0.00 | 0.00 | 26 | 1032.6 |
| 20260509200025 | 65 | 348 | 0.0 | 5.0 | 0.00 | 0.00 | 0.00 | 18 | 1032.5 |
| 20260509194523 | 65 | 167 | 0.0 | 6.0 | 0.00 | 0.00 | 0.00 | 20 | 1032.6 |
| 20260509193027 | 65 | 213 | 0.0 | 7.0 | 0.00 | 0.00 | 0.00 | 21 | 1032.6 |
| 20260509191519 | 65 | 154 | 0.0 | 3.0 | 0.00 | 0.00 | 0.00 | 20 | 1032.9 |
| 20260509190022 | 65 | 225 | 1.0 | 6.0 | 0.00 | 0.00 | 0.00 | 20 | 1033.0 |
| 20260509184515 | 66 | 150 | 0.0 | 5.0 | 0.00 | 0.00 | 0.00 | 21 | 1033.1 |
| 20260509183013 | 65 | 148 | 0.0 | 8.0 | 0.00 | 0.00 | 0.00 | 21 | 1033.4 |
| 20260509181511 | 64 | 188 | 1.0 | 9.0 | 0.00 | 0.00 | 0.00 | 22 | 1033.4 |
| 20260509180009 | 65 | 101 | 0.0 | 8.0 | 0.00 | 0.00 | 0.00 | 20 | 1033.7 |
| 20260509174512 | 64 | 217 | 0.0 | 3.0 | 0.00 | 0.00 | 0.00 | 25 | 1033.7 |
| 20260509173005 | 64 | 138 | 2.0 | 17.0 | 0.00 | 0.00 | 0.00 | 21 | 1034.1 |
| 20260509171506 | 63 | 55 | 0.0 | 7.0 | 0.00 | 0.00 | 0.00 | 22 | 1034.0 |
| 20260509170004 | 63 | 211 | 1.0 | 8.0 | 0.00 | 0.00 | 0.00 | 20 | 1034.0 |
| 20260509164502 | 64 | 113 | 1.0 | 8.0 | 0.00 | 0.00 | 0.00 | 21 | 1033.7 |
| 20260509163119 | 63 | 161 | 1.0 | 7.0 | 0.00 | 0.00 | 0.00 | 25 | 1033.7 |
| 20260509161556 | 62 | 314 | 0.0 | 13.0 | 0.00 | 0.00 | 0.00 | 28 | 1033.9 |
| 20260509160052 | 60 | 114 | 0.0 | 0.0 | 0.00 | 0.00 | 0.00 | 31 | 1034.1 |
| 20260509154551 | 58 | 114 | 0.0 | 4.0 | 0.00 | 0.00 | 0.00 | 31 | 1034.3 |
| 20260509153049 | 57 | 114 | 0.0 | 0.0 | 0.00 | 0.00 | 0.00 | 34 | 1034.5 |
| 20260509151542 | 55 | 113 | 0.0 | 2.0 | 0.00 | 0.00 | 0.00 | 35 | 1034.7 |
| 20260509150046 | 53 | 112 | 0.0 | 0.0 | 0.00 | 0.00 | 0.00 | 38 | 1035.0 |
| 20260509144613 | 50 | 113 | 0.0 | 0.0 | 0.00 | 0.00 | 0.00 | 46 | 1035.3 |
| 20260509143045 | 47 | 112 | 0.0 | 0.0 | 0.00 | 0.00 | 0.00 | 54 | 1035.3 |
| 20260509141542 | 44 | 112 | 0.0 | 0.0 | 0.00 | 0.00 | 0.00 | 58 | 1035.4 |
| 20260509140037 | 45 | 112 | 0.0 | 0.0 | 0.00 | 0.00 | 0.00 | 55 | 1035.5 |
| 20260509134535 | 46 | 112 | 0.0 | 0.0 | 0.00 | 0.00 | 0.00 | 51 | 1035.5 |
| 20260509133036 | 47 | 112 | 0.0 | 0.0 | 0.00 | 0.00 | 0.00 | 49 | 1035.4 |
| 20260509131539 | 49 | 112 | 0.0 | 0.0 | 0.00 | 0.00 | 0.00 | 45 | 1035.2 |
| 20260509130035 | 49 | 118 | 0.0 | 4.0 | 0.00 | 0.00 | 0.00 | 41 | 1034.9 |
| 20260509124547 | 50 | 169 | 0.0 | 0.0 | 0.00 | 0.00 | 0.00 | 43 | 1034.6 |
| 20260509123034 | 51 | 169 | 0.0 | 6.0 | 0.00 | 0.00 | 0.00 | 41 | 1034.4 |
| 20260509121535 | 52 | 156 | 2.0 | 14.0 | 0.00 | 0.00 | 0.00 | 38 | 1033.8 |
| 20260509120032 | 52 | 360 | 1.0 | 12.0 | 0.00 | 0.00 | 0.00 | 39 | 1033.4 |
| 20260509114531 | 53 | 105 | 0.0 | 20.0 | 0.00 | 0.00 | 0.00 | 37 | 1033.6 |
| 20260509113029 | 53 | 216 | 0.0 | 11.0 | 0.00 | 0.00 | 0.00 | 39 | 1033.5 |
| 20260509111526 | 51 | 141 | 1.0 | 10.0 | 0.00 | 0.00 | 0.00 | 42 | 1033.5 |
| 20260509110023 | 51 | 360 | 0.0 | 7.0 | 0.00 | 0.00 | 0.00 | 43 | 1033.8 |
| 20260509104531 | 51 | 5 | 2.0 | 14.0 | 0.00 | 0.00 | 0.00 | 44 | 1034.2 |
| 20260509103018 | 49 | 331 | 0.0 | 4.0 | 0.00 | 0.00 | 0.00 | 46 | 1034.2 |
| 20260509101517 | 50 | 17 | 0.0 | 4.0 | 0.00 | 0.00 | 0.00 | 46 | 1034.5 |
| 20260509100025 | 47 | 5 | 0.0 | 5.0 | 0.00 | 0.00 | 0.00 | 51 | 1034.7 |
| 20260509094518 | 46 | 5 | 0.0 | 0.0 | 0.00 | 0.00 | 0.00 | 55 | 1034.9 |
| 20260509093010 | 48 | 5 | 0.0 | 4.0 | 0.00 | 0.00 | 0.00 | 53 | 1035.0 |
| 20260509091509 | 47 | 5 | 0.0 | 0.0 | 0.00 | 0.00 | 0.00 | 53 | 1034.7 |
| 20260509090009 | 47 | 5 | 0.0 | 0.0 | 0.00 | 0.00 | 0.00 | 55 | 1034.8 |
| 20260509084511 | 48 | 5 | 0.0 | 0.0 | 0.00 | 0.00 | 0.00 | 53 | 1034.7 |
| 20260509083004 | 48 | 5 | 0.0 | 1.0 | 0.00 | 0.00 | 0.00 | 54 | 1034.9 |
| 20260509081504 | 49 | 5 | 0.0 | 1.0 | 0.00 | 0.00 | 0.00 | 51 | 1034.9 |
| 20260509080101 | 48 | 5 | 0.0 | 4.0 | 0.00 | 0.00 | 0.00 | 53 | 1035.2 |
| 20260509074559 | 43 | 193 | 0.0 | 0.0 | 0.00 | 0.00 | 0.00 | 70 | 1035.1 |
| 20260509073056 | 42 | 193 | 0.0 | 0.0 | 0.00 | 0.00 | 0.00 | 77 | 1035.2 |
| 20260509071557 | 43 | 193 | 0.0 | 0.0 | 0.00 | 0.00 | 0.00 | 76 | 1035.1 |
| 20260509070051 | 43 | 193 | 0.0 | 0.0 | 0.00 | 0.00 | 0.00 | 75 | 1035.2 |
| 20260509064548 | 43 | 193 | 0.0 | 0.0 | 0.00 | 0.00 | 0.00 | 76 | 1035.3 |
| 20260509063046 | 43 | 193 | 0.0 | 0.0 | 0.00 | 0.00 | 0.00 | 77 | 1035.4 |
| 20260509061550 | 43 | 193 | 0.0 | 0.0 | 0.00 | 0.00 | 0.00 | 77 | 1035.6 |
| 20260509060052 | 43 | 193 | 0.0 | 0.0 | 0.00 | 0.00 | 0.00 | 76 | 1035.6 |
| 20260509054553 | 43 | 193 | 0.0 | 0.0 | 0.00 | 0.00 | 0.00 | 75 | 1035.8 |
| 20260509053042 | 44 | 193 | 0.0 | 0.0 | 0.00 | 0.00 | 0.00 | 74 | 1036.0 |
| 20260509051541 | 44 | 193 | 0.0 | 0.0 | 0.00 | 0.00 | 0.00 | 74 | 1036.1 |
| 20260509050050 | 44 | 193 | 0.0 | 0.0 | 0.00 | 0.00 | 0.00 | 76 | 1036.4 |
| 20260509044547 | 45 | 193 | 0.0 | 0.0 | 0.00 | 0.00 | 0.00 | 76 | 1036.5 |
| 20260509043039 | 46 | 193 | 0.0 | 0.0 | 0.00 | 0.00 | 0.00 | 76 | 1036.8 |
| 20260509041539 | 47 | 193 | 0.0 | 0.0 | 0.00 | 0.00 | 0.00 | 73 | 1036.9 |
| 20260509040039 | 48 | 193 | 0.0 | 0.0 | 0.00 | 0.00 | 0.00 | 72 | 1036.8 |
| 20260509034543 | 49 | 193 | 0.0 | 0.0 | 0.00 | 0.00 | 0.00 | 72 | 1036.9 |
| 20260509033038 | 49 | 193 | 0.0 | 0.0 | 0.00 | 0.00 | 0.00 | 71 | 1037.1 |
| 20260509031546 | 49 | 192 | 0.0 | 0.0 | 0.00 | 0.00 | 0.00 | 69 | 1037.6 |